Time;durP1;ratioP1;P1;durP2;ratioP2;P2;SDS_P1;SDS_P2;PMS_P1;PMS_P2;Temp;Humidity;BMP_temperature;BMP_pressure;BME280_temperature;BME280_humidity;BME280_pressure;Samples;Min_cycle;Max_cycle;Signal;HPM_P1;HPM_P2
2021/09/13 00:00:28;;;;;;;2.58;1.67;;;17.80;71.80;;;;;;5059831;28;20063;-78
2021/09/13 00:02:54;;;;;;;2.33;1.70;;;17.80;71.70;;;;;;5075889;28;20028;-78
2021/09/13 00:05:22;;;;;;;2.10;1.50;;;17.80;71.80;;;;;;5058785;28;20033;-78
2021/09/13 00:07:47;;;;;;;2.70;1.60;;;17.80;71.80;;;;;;5055986;28;20447;-78
2021/09/13 00:10:21;;;;;;;1.95;1.40;;;17.80;71.70;;;;;;5056115;28;20055;-78
2021/09/13 00:12:47;;;;;;;2.88;1.90;;;17.70;71.90;;;;;;5040203;28;20028;-78
2021/09/13 00:15:13;;;;;;;2.35;1.25;;;17.70;71.80;;;;;;5037459;28;20033;-78
2021/09/13 00:17:39;;;;;;;2.90;1.52;;;17.70;71.80;;;;;;5037984;28;20034;-78
2021/09/13 00:20:06;;;;;;;2.22;1.67;;;17.70;71.90;;;;;;5035644;28;20040;-78
2021/09/13 00:22:32;;;;;;;2.58;2.00;;;17.70;71.90;;;;;;5036905;28;20044;-78
2021/09/13 00:24:58;;;;;;;2.50;1.52;;;17.50;72.10;;;;;;5052355;28;20021;-78
2021/09/13 00:27:26;;;;;;;2.28;1.73;;;17.50;72.10;;;;;;5052223;28;20030;-78
2021/09/13 00:29:52;;;;;;;1.98;1.63;;;17.50;72.10;;;;;;5036932;28;20022;-78
2021/09/13 00:32:17;;;;;;;1.80;1.58;;;17.60;71.90;;;;;;5052297;28;20036;-78
2021/09/13 00:34:43;;;;;;;3.30;1.60;;;17.50;72.20;;;;;;5046657;28;20029;-78
2021/09/13 00:37:09;;;;;;;4.85;1.88;;;17.50;72.10;;;;;;5052041;28;20044;-78
2021/09/13 00:39:34;;;;;;;2.50;1.90;;;17.40;72.30;;;;;;5035425;28;20032;-78
2021/09/13 00:42:00;;;;;;;2.05;1.75;;;17.40;72.40;;;;;;5071666;28;20088;-78
2021/09/13 00:44:33;;;;;;;3.30;2.10;;;17.30;72.70;;;;;;5076519;28;20055;-78
2021/09/13 00:46:59;;;;;;;2.97;1.77;;;17.40;72.40;;;;;;5065865;28;20040;-78
2021/09/13 00:49:25;;;;;;;2.15;1.80;;;17.30;72.20;;;;;;5056429;28;20017;-78
2021/09/13 00:51:52;;;;;;;3.38;1.98;;;17.40;72.20;;;;;;5036875;28;20467;-78
2021/09/13 00:54:18;;;;;;;4.05;1.95;;;17.40;72.10;;;;;;5036235;28;20053;-78
2021/09/13 00:56:44;;;;;;;3.38;1.95;;;17.40;72.10;;;;;;5034888;28;20057;-78
2021/09/13 00:59:14;;;;;;;2.15;1.88;;;17.40;71.90;;;;;;5036632;28;20036;-78
2021/09/13 01:01:43;;;;;;;3.22;2.10;;;17.30;72.20;;;;;;5051673;28;20026;-78
2021/09/13 01:04:08;;;;;;;3.28;2.00;;;17.40;72.50;;;;;;5051359;28;20037;-78
2021/09/13 01:06:34;;;;;;;4.00;2.05;;;17.30;72.30;;;;;;5036186;28;20029;-78
2021/09/13 01:09:00;;;;;;;2.83;1.90;;;17.30;72.40;;;;;;5036498;28;20025;-78
2021/09/13 01:11:26;;;;;;;3.22;2.17;;;17.30;72.40;;;;;;5051421;28;20021;-77
2021/09/13 01:13:52;;;;;;;2.60;2.20;;;17.30;72.40;;;;;;5035996;28;20872;-78
2021/09/13 01:16:18;;;;;;;3.67;2.13;;;17.30;72.30;;;;;;5051432;28;20030;-78
2021/09/13 01:18:46;;;;;;;2.97;2.03;;;17.30;72.30;;;;;;5051367;28;20032;-78
2021/09/13 01:21:12;;;;;;;2.85;2.15;;;17.30;72.20;;;;;;5050326;28;20117;-78
2021/09/13 01:23:38;;;;;;;3.78;1.98;;;17.30;72.60;;;;;;5052169;28;20053;-77
2021/09/13 01:26:04;;;;;;;2.78;2.00;;;17.20;72.40;;;;;;5037306;28;20069;-78
2021/09/13 01:28:30;;;;;;;2.95;2.28;;;17.20;72.40;;;;;;5035626;28;20026;-78
2021/09/13 01:30:57;;;;;;;3.33;1.90;;;17.20;72.70;;;;;;5035804;28;20333;-78
2021/09/13 01:33:24;;;;;;;3.97;2.00;;;17.20;72.60;;;;;;5034503;28;20025;-78
2021/09/13 01:35:52;;;;;;;2.88;2.20;;;17.20;72.80;;;;;;5054489;28;20032;-78
2021/09/13 01:38:22;;;;;;;2.88;2.35;;;17.20;72.40;;;;;;5054352;28;20029;-78
2021/09/13 01:40:48;;;;;;;3.60;2.10;;;17.20;72.50;;;;;;5063069;28;20469;-78
2021/09/13 01:43:14;;;;;;;2.40;2.20;;;17.20;72.40;;;;;;5074295;28;20479;-77
2021/09/13 01:45:40;;;;;;;2.83;2.53;;;17.20;72.50;;;;;;5043090;28;20055;-78
2021/09/13 01:48:06;;;;;;;3.22;2.60;;;17.20;72.70;;;;;;5035603;28;20034;-78
2021/09/13 01:50:32;;;;;;;4.05;2.63;;;17.20;72.30;;;;;;5035542;28;20053;-78
2021/09/13 01:52:57;;;;;;;3.05;2.50;;;17.20;72.40;;;;;;5042665;28;20059;-77
2021/09/13 01:55:24;;;;;;;2.72;2.33;;;17.20;72.50;;;;;;5054061;28;20542;-78
2021/09/13 01:57:50;;;;;;;3.92;2.40;;;17.30;72.40;;;;;;5055506;28;20021;-78
2021/09/13 02:00:16;;;;;;;4.60;2.38;;;17.30;72.20;;;;;;5054173;28;20101;-78
2021/09/13 02:02:42;;;;;;;3.42;2.40;;;17.30;72.30;;;;;;5049239;28;20622;-78
2021/09/13 02:05:08;;;;;;;2.70;2.25;;;17.30;71.90;;;;;;5035479;28;20081;-78
2021/09/13 02:07:34;;;;;;;3.35;2.40;;;17.30;72.30;;;;;;5035481;28;20025;-78
2021/09/13 02:10:04;;;;;;;3.03;2.40;;;17.40;72.00;;;;;;5035325;28;20033;-77
2021/09/13 02:12:30;;;;;;;4.88;2.63;;;17.30;72.10;;;;;;5034144;28;20089;-78
2021/09/13 02:14:56;;;;;;;2.90;2.40;;;17.30;72.10;;;;;;5033977;28;20033;-78
2021/09/13 02:17:22;;;;;;;3.30;2.22;;;17.40;72.00;;;;;;5034140;28;20025;-78
2021/09/13 02:19:48;;;;;;;3.10;2.20;;;17.50;71.80;;;;;;5035134;28;20051;-78
2021/09/13 02:22:14;;;;;;;3.00;2.40;;;17.50;71.50;;;;;;5050917;28;20034;-78
2021/09/13 02:24:40;;;;;;;5.55;2.53;;;17.40;71.80;;;;;;5050577;28;20026;-77
2021/09/13 02:27:06;;;;;;;2.80;2.50;;;17.50;71.80;;;;;;5050674;28;20388;-78
2021/09/13 02:29:32;;;;;;;4.57;2.72;;;17.40;72.00;;;;;;5050406;28;20025;-78
2021/09/13 02:31:58;;;;;;;3.75;2.25;;;17.40;72.10;;;;;;5050424;28;20022;-78
2021/09/13 02:34:24;;;;;;;3.05;2.33;;;17.30;72.30;;;;;;5074413;28;20043;-78
2021/09/13 02:36:49;;;;;;;2.85;2.13;;;17.30;72.80;;;;;;5054045;28;20135;-78
2021/09/13 02:39:15;;;;;;;3.15;2.22;;;17.30;72.80;;;;;;5045476;28;20080;-78
2021/09/13 02:41:41;;;;;;;3.10;2.45;;;17.30;72.70;;;;;;5068880;28;20067;-78
2021/09/13 02:44:06;;;;;;;6.70;2.90;;;17.30;72.60;;;;;;5077552;28;20024;-77
2021/09/13 02:46:32;;;;;;;3.53;2.42;;;17.30;72.70;;;;;;5077675;28;20757;-77
2021/09/13 02:48:58;;;;;;;3.55;2.60;;;17.30;72.90;;;;;;5050480;28;20029;-78
2021/09/13 02:51:23;;;;;;;2.72;2.20;;;17.30;72.30;;;;;;5038764;28;20033;-78
2021/09/13 02:53:49;;;;;;;3.20;2.35;;;17.30;72.50;;;;;;5037461;28;20025;-77
2021/09/13 02:56:15;;;;;;;2.80;2.08;;;17.30;72.30;;;;;;5038596;28;20408;-78
2021/09/13 02:58:40;;;;;;;3.47;2.42;;;17.30;72.30;;;;;;5054169;28;20029;-78
2021/09/13 03:01:06;;;;;;;3.67;2.50;;;17.30;72.60;;;;;;5052830;28;20072;-77
2021/09/13 03:03:32;;;;;;;4.07;2.17;;;17.30;72.40;;;;;;5053688;28;20060;-78
2021/09/13 03:05:57;;;;;;;3.58;2.20;;;17.30;72.30;;;;;;5052494;28;20065;-78
2021/09/13 03:08:23;;;;;;;4.13;2.58;;;17.30;72.30;;;;;;5038468;28;20585;-78
2021/09/13 03:10:49;;;;;;;2.78;2.20;;;17.30;72.40;;;;;;5053995;28;20610;-78
2021/09/13 03:13:15;;;;;;;2.50;2.00;;;17.30;72.50;;;;;;5052510;28;20037;-78
2021/09/13 03:15:41;;;;;;;3.08;2.55;;;17.20;72.70;;;;;;5052403;28;20029;-78
2021/09/13 03:18:16;;;;;;;;;;;;;;;;;;;;;
2021/09/13 03:20:42;;;;;;;3.13;2.33;;;17.20;72.40;;;;;;5038219;28;20037;-78
2021/09/13 03:23:08;;;;;;;3.53;2.30;;;17.20;72.50;;;;;;5038316;28;20507;-78
2021/09/13 03:25:33;;;;;;;5.18;2.97;;;17.20;72.60;;;;;;5038249;28;20397;-78
2021/09/13 03:27:59;;;;;;;3.30;2.50;;;17.20;72.40;;;;;;5053531;28;20035;-78
2021/09/13 03:30:25;;;;;;;3.00;2.55;;;17.10;72.50;;;;;;5038131;28;20025;-78
2021/09/13 03:32:51;;;;;;;3.35;2.17;;;17.10;72.50;;;;;;5038194;28;20480;-78
2021/09/13 03:35:21;;;;;;;2.90;2.40;;;17.10;72.50;;;;;;5052184;28;20506;-78
2021/09/13 03:37:46;;;;;;;;;;;17.10;72.50;;;;;;5046379;28;20385;-78
2021/09/13 03:40:13;;;;;;;3.83;2.20;;;17.10;72.50;;;;;;5058675;28;20110;-77
2021/09/13 03:42:39;;;;;;;2.55;2.22;;;17.10;72.50;;;;;;5078021;28;20453;-78
2021/09/13 03:45:05;;;;;;;2.80;2.35;;;17.10;72.80;;;;;;5060361;28;20594;-78
2021/09/13 03:47:31;;;;;;;3.47;2.50;;;17.00;73.00;;;;;;5037424;28;20025;-78
2021/09/13 03:49:56;;;;;;;3.03;2.65;;;16.90;73.00;;;;;;5036561;28;20034;-78
2021/09/13 03:52:25;;;;;;;3.33;2.88;;;16.90;73.60;;;;;;5037604;28;20033;-77
2021/09/13 03:54:50;;;;;;;4.45;2.35;;;16.80;73.40;;;;;;5037523;28;20523;-78
2021/09/13 03:57:16;;;;;;;3.65;2.58;;;16.90;73.20;;;;;;5037614;28;20056;-78
2021/09/13 03:59:42;;;;;;;3.00;2.50;;;16.90;73.20;;;;;;5052829;28;20029;-78
2021/09/13 04:02:07;;;;;;;5.28;2.63;;;16.90;73.10;;;;;;5051669;28;20588;-78
2021/09/13 04:04:34;;;;;;;3.30;2.25;;;16.90;73.20;;;;;;5052863;28;20060;-77
2021/09/13 04:10:10;;;;;;;2.90;2.20;;;16.90;73.40;;;;;;5037521;28;20018;-77
2021/09/13 04:12:25;;;;;;;4.80;2.72;;;16.90;73.80;;;;;;5044729;28;20558;-78
2021/09/13 04:14:51;;;;;;;3.05;2.20;;;16.90;73.90;;;;;;5057187;28;20118;-78
2021/09/13 04:17:17;;;;;;;3.10;2.42;;;16.90;73.40;;;;;;5053268;28;20109;-78
2021/09/13 04:19:42;;;;;;;4.28;2.40;;;16.90;74.10;;;;;;5035961;28;20026;-78
2021/09/13 04:22:09;;;;;;;3.70;2.83;;;16.90;73.60;;;;;;5036063;28;20087;-78
2021/09/13 04:24:35;;;;;;;5.90;2.60;;;16.90;73.30;;;;;;5037018;28;20030;-78
2021/09/13 04:27:01;;;;;;;3.28;2.33;;;16.90;73.60;;;;;;5036955;28;20029;-78
2021/09/13 04:29:26;;;;;;;2.97;2.38;;;16.90;73.50;;;;;;5052653;28;20511;-78
2021/09/13 04:31:52;;;;;;;3.85;2.72;;;16.90;73.30;;;;;;5036901;28;20025;-78
2021/09/13 04:34:18;;;;;;;4.68;2.78;;;17.00;73.30;;;;;;5042894;28;20033;-78
2021/09/13 04:36:43;;;;;;;2.78;2.25;;;17.00;73.00;;;;;;5046515;28;20037;-77
2021/09/13 04:39:09;;;;;;;3.35;2.35;;;16.90;73.40;;;;;;5052368;28;20040;-78
2021/09/13 04:41:36;;;;;;;3.72;2.53;;;16.90;73.00;;;;;;5064865;28;20037;-78
2021/09/13 04:44:02;;;;;;;4.32;2.65;;;17.00;73.20;;;;;;5061745;28;20041;-79
2021/09/13 04:46:28;;;;;;;3.03;2.70;;;16.90;73.40;;;;;;5036415;28;20025;-79
2021/09/13 04:48:53;;;;;;;3.95;2.83;;;16.90;73.60;;;;;;5036303;28;20029;-78
2021/09/13 04:51:19;;;;;;;3.40;2.75;;;16.90;73.90;;;;;;5036711;28;20100;-78
2021/09/13 04:53:45;;;;;;;3.05;2.58;;;16.90;73.60;;;;;;5046830;28;20440;-78
2021/09/13 04:56:10;;;;;;;3.35;2.90;;;16.90;73.50;;;;;;5056159;28;20087;-78
2021/09/13 04:58:36;;;;;;;3.65;2.70;;;16.90;73.60;;;;;;5056169;28;20025;-76
2021/09/13 05:01:02;;;;;;;3.50;2.40;;;16.90;73.50;;;;;;5043416;28;20034;-77
2021/09/13 05:03:27;;;;;;;4.13;2.70;;;16.90;73.60;;;;;;5036033;28;20029;-81
2021/09/13 05:05:58;;;;;;;4.80;2.92;;;16.90;73.70;;;;;;5036089;28;20042;-86
2021/09/13 05:08:23;;;;;;;;;;;16.90;73.80;;;;;;5036568;28;20100;-81
2021/09/13 05:10:49;;;;;;;2.60;2.30;;;16.90;73.40;;;;;;5053567;28;19913;-78
2021/09/13 05:13:15;;;;;;;4.13;2.65;;;16.90;73.30;;;;;;5055199;28;20086;-80
2021/09/13 05:15:40;;;;;;;4.00;2.60;;;17.00;73.10;;;;;;5050418;28;20031;-79
2021/09/13 05:18:08;;;;;;;4.43;2.42;;;17.00;73.10;;;;;;5035937;28;20117;-81
2021/09/13 05:20:34;;;;;;;5.15;2.58;;;17.00;73.00;;;;;;5034865;28;20372;-79
2021/09/13 05:23:00;;;;;;;3.58;2.33;;;17.00;73.00;;;;;;5050302;28;20033;-82
2021/09/13 05:25:25;;;;;;;3.03;2.35;;;17.00;73.20;;;;;;5051801;28;20025;-86
2021/09/13 05:27:51;;;;;;;3.13;2.80;;;17.00;73.20;;;;;;5046526;28;20059;-81
2021/09/13 05:30:17;;;;;;;4.28;2.50;;;17.00;73.30;;;;;;5053719;28;20023;-81
2021/09/13 05:32:43;;;;;;;4.43;2.40;;;17.00;73.20;;;;;;5050120;28;20087;-81
2021/09/13 05:35:09;;;;;;;3.60;2.80;;;17.00;73.20;;;;;;5064960;28;20109;-81
2021/09/13 05:37:34;;;;;;;4.07;2.70;;;17.00;73.20;;;;;;5045000;28;20408;-82
2021/09/13 05:40:03;;;;;;;4.28;3.05;;;17.00;73.60;;;;;;5046506;28;20029;-81
2021/09/13 05:42:29;;;;;;;2.67;2.38;;;16.90;73.20;;;;;;5061135;28;20554;-83
2021/09/13 05:44:54;;;;;;;3.05;2.75;;;17.00;73.20;;;;;;5053623;28;20103;-79
2021/09/13 05:47:20;;;;;;;3.42;2.65;;;16.90;73.20;;;;;;5055470;28;20449;-83
2021/09/13 05:49:46;;;;;;;4.32;2.83;;;16.90;73.40;;;;;;5048809;28;20112;-82
2021/09/13 05:52:11;;;;;;;3.35;2.80;;;16.80;73.50;;;;;;5045402;28;20483;-83
2021/09/13 05:54:37;;;;;;;3.55;3.10;;;16.80;73.40;;;;;;5054304;28;20068;-83
2021/09/13 05:57:03;;;;;;;3.08;2.33;;;16.80;73.20;;;;;;5054663;28;20029;-83
2021/09/13 05:59:28;;;;;;;3.60;2.50;;;16.80;73.30;;;;;;5052236;28;20050;-83
2021/09/13 06:01:54;;;;;;;3.95;2.80;;;16.80;73.50;;;;;;5050942;28;20160;-84
2021/09/13 06:04:20;;;;;;;4.30;2.80;;;16.80;73.50;;;;;;5053411;28;20021;-83
2021/09/13 06:06:45;;;;;;;4.47;3.03;;;16.90;73.40;;;;;;5054373;28;20021;-83
2021/09/13 06:09:11;;;;;;;3.38;3.08;;;16.90;73.30;;;;;;5052146;28;20681;-83
2021/09/13 06:11:37;;;;;;;4.47;2.70;;;16.90;73.20;;;;;;5056227;28;20013;-83
2021/09/13 06:14:03;;;;;;;3.45;2.83;;;17.00;73.30;;;;;;5055791;28;20025;-84
2021/09/13 06:16:29;;;;;;;3.08;2.55;;;17.00;72.80;;;;;;5057677;28;20036;-83
2021/09/13 06:18:55;;;;;;;3.03;2.20;;;17.10;72.80;;;;;;5058654;28;20430;-83
2021/09/13 06:21:21;;;;;;;3.83;2.58;;;17.10;72.80;;;;;;5056296;28;20020;-83
2021/09/13 06:23:47;;;;;;;3.38;2.58;;;17.20;72.60;;;;;;5055774;28;20027;-84
2021/09/13 06:26:13;;;;;;;3.05;2.53;;;17.20;72.70;;;;;;5057325;28;20079;-83
2021/09/13 06:28:39;;;;;;;2.67;2.42;;;17.30;72.70;;;;;;5057720;28;20088;-84
2021/09/13 06:31:05;;;;;;;4.25;2.58;;;17.20;72.80;;;;;;5056803;28;20029;-84
2021/09/13 06:33:32;;;;;;;4.03;2.65;;;17.30;72.70;;;;;;5055932;28;20369;-84
2021/09/13 06:35:59;;;;;;;2.97;2.55;;;17.40;72.80;;;;;;5058538;28;20029;-85
2021/09/13 06:38:25;;;;;;;4.43;2.72;;;17.50;72.40;;;;;;5055938;28;20044;-84
2021/09/13 06:40:51;;;;;;;3.42;2.67;;;17.60;72.20;;;;;;5058279;28;20414;-84
2021/09/13 06:43:18;;;;;;;3.10;2.78;;;17.70;72.00;;;;;;5057715;28;20053;-84
2021/09/13 06:45:45;;;;;;;3.00;2.40;;;17.70;71.80;;;;;;5058163;28;20098;-84
2021/09/13 06:48:14;;;;;;;3.58;2.63;;;17.80;72.10;;;;;;5057149;28;20017;-84
2021/09/13 06:50:43;;;;;;;3.80;2.50;;;17.80;71.80;;;;;;5056583;28;20032;-84
2021/09/13 06:53:09;;;;;;;5.10;2.47;;;17.80;71.90;;;;;;5058198;28;20428;-84
2021/09/13 06:55:40;;;;;;;4.80;2.47;;;17.80;71.50;;;;;;5056666;28;20071;-84
2021/09/13 06:58:06;;;;;;;3.42;2.78;;;17.90;71.40;;;;;;5057035;28;20109;-85
2021/09/13 07:00:33;;;;;;;4.30;2.50;;;17.90;71.40;;;;;;5056793;28;20036;-85
2021/09/13 07:02:59;;;;;;;3.67;2.55;;;18.00;70.70;;;;;;5057759;28;20040;-85
2021/09/13 07:05:26;;;;;;;3.47;2.80;;;18.20;70.60;;;;;;5043532;28;20036;-85
2021/09/13 07:07:52;;;;;;;2.60;2.38;;;18.30;70.50;;;;;;5037198;28;20022;-85
2021/09/13 07:10:18;;;;;;;5.18;2.65;;;18.30;70.30;;;;;;5042440;28;20029;-85
2021/09/13 07:12:45;;;;;;;3.63;2.65;;;18.40;69.80;;;;;;5058200;28;20103;-85
2021/09/13 07:15:11;;;;;;;2.90;2.50;;;18.50;69.20;;;;;;5058281;28;20017;-84
2021/09/13 07:17:37;;;;;;;3.25;2.47;;;18.60;69.20;;;;;;5044544;28;20044;-84
2021/09/13 07:20:03;;;;;;;3.67;2.25;;;18.70;69.20;;;;;;5045567;28;20033;-84
2021/09/13 07:22:29;;;;;;;3.28;2.80;;;18.70;68.80;;;;;;5041188;28;20025;-84
2021/09/13 07:24:55;;;;;;;2.80;2.15;;;18.80;68.80;;;;;;5037640;28;20029;-85
2021/09/13 07:27:21;;;;;;;4.50;2.70;;;18.90;68.30;;;;;;5037975;28;20025;-84
2021/09/13 07:29:46;;;;;;;2.65;2.17;;;19.50;66.90;;;;;;5057396;28;20021;-85
2021/09/13 07:32:12;;;;;;;2.88;1.88;;;20.30;64.80;;;;;;5056411;28;20117;-85
2021/09/13 07:34:38;;;;;;;3.03;1.80;;;20.50;64.00;;;;;;5039500;28;20396;-85
2021/09/13 07:37:04;;;;;;;2.70;2.17;;;20.50;63.60;;;;;;5037710;28;20104;-85
2021/09/13 07:39:30;;;;;;;4.05;2.42;;;20.30;64.00;;;;;;5037855;28;20029;-85
2021/09/13 07:41:57;;;;;;;4.40;2.35;;;20.20;64.60;;;;;;5060660;28;20021;-84
2021/09/13 07:44:23;;;;;;;2.50;2.20;;;20.30;64.70;;;;;;5057535;28;20585;-86
2021/09/13 07:46:49;;;;;;;3.25;2.58;;;20.60;63.90;;;;;;5056228;28;20029;-86
2021/09/13 07:49:14;;;;;;;2.40;2.00;;;20.50;63.30;;;;;;5056356;28;20028;-85
2021/09/13 07:51:40;;;;;;;2.88;2.20;;;20.40;63.30;;;;;;5039480;28;20099;-85
2021/09/13 07:54:10;;;;;;;2.97;2.10;;;20.00;64.50;;;;;;5037178;28;20050;-85
2021/09/13 07:56:37;;;;;;;4.38;2.15;;;20.20;65.00;;;;;;5053063;28;20029;-85
2021/09/13 07:59:03;;;;;;;3.05;2.15;;;20.20;64.60;;;;;;5037280;28;20492;-84
2021/09/13 08:01:33;;;;;;;3.17;2.10;;;20.10;65.10;;;;;;5037357;28;20488;-85
2021/09/13 08:04:00;;;;;;;3.40;2.20;;;20.30;64.90;;;;;;5037164;28;20765;-85
2021/09/13 08:06:25;;;;;;;2.60;2.10;;;20.50;64.40;;;;;;5036954;28;20029;-85
2021/09/13 08:08:51;;;;;;;5.90;2.38;;;21.20;62.80;;;;;;5037138;28;20032;-85
2021/09/13 08:11:17;;;;;;;3.72;2.38;;;21.80;61.30;;;;;;5037336;28;20399;-85
2021/09/13 08:13:43;;;;;;;3.75;1.88;;;22.40;59.80;;;;;;5036998;28;20037;-85
2021/09/13 08:16:10;;;;;;;3.55;2.08;;;23.00;58.00;;;;;;5052388;28;20033;-85
2021/09/13 08:18:39;;;;;;;2.60;1.90;;;23.30;55.40;;;;;;5036897;28;20093;-85
2021/09/13 08:21:06;;;;;;;2.67;2.25;;;23.40;55.30;;;;;;5052849;28;20017;-85
2021/09/13 08:23:33;;;;;;;1.80;1.50;;;23.70;55.90;;;;;;5053415;28;20480;-85
2021/09/13 08:26:03;;;;;;;5.93;3.28;;;23.80;55.90;;;;;;5036975;28;20075;-86
2021/09/13 08:28:29;;;;;;;5.85;3.75;;;23.70;54.80;;;;;;5035550;28;20115;-85
2021/09/13 08:30:56;;;;;;;2.67;2.05;;;23.70;54.50;;;;;;5036822;28;20026;-85
2021/09/13 08:33:21;;;;;;;4.90;2.40;;;23.80;54.60;;;;;;5050705;28;20033;-87
2021/09/13 08:35:48;;;;;;;3.53;1.98;;;23.80;54.00;;;;;;5035869;28;20029;-85
2021/09/13 08:38:14;;;;;;;3.13;1.75;;;24.20;54.60;;;;;;5051990;28;20127;-86
2021/09/13 08:40:40;;;;;;;4.40;2.20;;;24.70;54.20;;;;;;5055963;28;20059;-85
2021/09/13 08:43:06;;;;;;;8.60;2.58;;;25.30;52.50;;;;;;5066190;28;20037;-86
2021/09/13 08:50:43;;;;;;;2.60;1.70;;;27.20;45.50;;;;;;5036724;28;20642;-85
2021/09/13 08:53:12;;;;;;;2.28;1.52;;;27.50;46.50;;;;;;5035201;28;20048;-87
2021/09/13 08:55:37;;;;;;;2.40;1.75;;;28.40;43.80;;;;;;5036246;28;20053;-86
2021/09/13 08:58:03;;;;;;;4.22;1.90;;;28.60;43.20;;;;;;5036405;28;20033;-86
2021/09/13 09:00:31;;;;;;;3.05;1.90;;;28.90;41.50;;;;;;5054074;28;20157;-87
2021/09/13 09:02:58;;;;;;;4.15;1.95;;;28.40;42.40;;;;;;5055136;28;20029;-86
2021/09/13 09:05:24;;;;;;;3.38;1.80;;;28.30;41.90;;;;;;5056186;28;20041;-85
2021/09/13 09:07:52;;;;;;;3.58;1.80;;;28.30;44.20;;;;;;5053584;28;20021;-85
2021/09/13 09:10:25;;;;;;;1.90;1.50;;;28.10;44.50;;;;;;5036015;28;20145;-86
2021/09/13 09:13:10;;;;;;;2.90;1.80;;;27.30;45.50;;;;;;5036210;28;20029;-86
2021/09/13 09:15:58;;;;;;;2.20;1.90;;;26.40;46.70;;;;;;5036082;28;20033;-86
2021/09/13 09:18:37;;;;;;;3.15;2.15;;;26.00;47.50;;;;;;5045963;28;20032;-86
2021/09/13 09:21:03;;;;;;;2.38;1.83;;;25.40;49.10;;;;;;5055779;28;20059;-86
2021/09/13 09:23:28;;;;;;;3.03;2.22;;;25.20;50.20;;;;;;5055824;28;20024;-85
2021/09/13 09:26:09;;;;;;;3.58;2.47;;;25.20;52.30;;;;;;5037182;28;20092;-86
2021/09/13 09:28:35;;;;;;;3.83;2.28;;;25.50;50.70;;;;;;5043455;28;20025;-86
2021/09/13 09:31:01;;;;;;;2.78;2.50;;;25.70;51.00;;;;;;5055611;28;20065;-86
2021/09/13 09:33:26;;;;;;;2.28;1.95;;;26.00;50.70;;;;;;5054242;28;20028;-86
2021/09/13 09:35:55;;;;;;;2.63;2.22;;;26.50;47.60;;;;;;5048674;28;20085;-85
2021/09/13 09:38:41;;;;;;;2.88;2.25;;;27.20;46.20;;;;;;5034321;28;20029;-86
2021/09/13 09:41:12;;;;;;;2.83;2.00;;;27.50;45.20;;;;;;5062279;28;20090;-85
2021/09/13 09:44:00;;;;;;;3.33;2.08;;;27.20;46.20;;;;;;5055970;28;20025;-86
2021/09/13 09:46:40;;;;;;;3.35;1.75;;;26.80;46.80;;;;;;5035285;28;20560;-85
2021/09/13 09:49:10;;;;;;;3.80;1.85;;;27.00;47.90;;;;;;5035564;28;20112;-85
2021/09/13 09:51:40;;;;;;;2.55;1.83;;;26.80;48.10;;;;;;5035557;28;20396;-85
2021/09/13 09:54:15;;;;;;;2.30;1.90;;;26.60;49.00;;;;;;5035183;28;20041;-85
2021/09/13 09:56:45;;;;;;;4.10;1.85;;;26.20;49.50;;;;;;5034052;28;20053;-84
2021/09/13 09:59:17;;;;;;;4.57;2.20;;;25.80;50.40;;;;;;5035374;28;20032;-85
2021/09/13 10:01:45;;;;;;;2.72;2.03;;;25.70;51.00;;;;;;5050712;28;20093;-84
2021/09/13 10:04:14;;;;;;;3.17;2.10;;;25.60;52.40;;;;;;5035344;28;20057;-86
2021/09/13 10:06:42;;;;;;;4.07;2.30;;;25.60;51.40;;;;;;5035114;28;20846;-84
2021/09/13 10:09:09;;;;;;;3.60;2.00;;;25.30;52.20;;;;;;5035468;28;20030;-85
2021/09/13 10:11:36;;;;;;;3.58;2.42;;;25.30;52.50;;;;;;5035203;28;20611;-85
2021/09/13 10:14:02;;;;;;;4.78;1.85;;;25.30;52.80;;;;;;5035451;28;20026;-84
2021/09/13 10:16:31;;;;;;;2.35;2.10;;;25.20;53.50;;;;;;5034209;28;20033;-86
2021/09/13 10:18:58;;;;;;;3.17;2.25;;;24.90;53.20;;;;;;5036895;28;20037;-85
2021/09/13 10:21:23;;;;;;;4.15;2.42;;;24.70;54.40;;;;;;5053596;28;20118;-85
2021/09/13 10:23:50;;;;;;;4.30;2.42;;;24.70;54.60;;;;;;5050525;28;20851;-85
2021/09/13 10:26:17;;;;;;;2.65;2.30;;;24.80;55.20;;;;;;5035026;28;20404;-84
2021/09/13 10:29:19;;;;;;;5.60;2.30;;;24.80;54.70;;;;;;5050709;28;20027;-84
2021/09/13 10:31:45;;;;;;;2.88;2.13;;;24.80;55.00;;;;;;5035902;28;20187;-85
2021/09/13 10:34:31;;;;;;;3.40;2.40;;;24.80;54.40;;;;;;5037200;28;20065;-86
2021/09/13 10:37:25;;;;;;;2.42;2.22;;;24.80;54.40;;;;;;5035130;28;20056;-86
2021/09/13 10:40:04;;;;;;;3.53;2.70;;;24.80;54.60;;;;;;5034905;28;20021;-85
2021/09/13 10:42:43;;;;;;;4.70;2.55;;;24.80;54.60;;;;;;5033609;28;20044;-85
2021/09/13 10:45:18;;;;;;;5.70;2.78;;;24.80;55.00;;;;;;5035000;28;20503;-84
2021/09/13 10:48:06;;;;;;;5.32;2.20;;;24.90;54.90;;;;;;5034701;28;20033;-84
2021/09/13 10:50:45;;;;;;;3.05;2.38;;;25.00;54.80;;;;;;5046580;28;20040;-86
2021/09/13 10:53:17;;;;;;;4.20;2.65;;;25.00;56.40;;;;;;5053105;28;20037;-88
2021/09/13 10:56:07;;;;;;;4.22;2.60;;;25.10;54.00;;;;;;5034890;28;20119;-86
2021/09/13 10:58:50;;;;;;;3.13;2.10;;;25.00;54.40;;;;;;5035050;28;20414;-85
2021/09/13 11:01:27;;;;;;;3.15;2.38;;;25.00;55.40;;;;;;5040113;28;20029;-82
2021/09/13 11:04:06;;;;;;;2.50;2.03;;;25.00;55.20;;;;;;5057076;28;20403;-84
2021/09/13 11:06:38;;;;;;;3.40;2.20;;;25.10;55.10;;;;;;5058339;28;20122;-88
2021/09/13 11:09:07;;;;;;;2.50;2.30;;;24.90;55.50;;;;;;5054317;28;20037;-89
2021/09/13 11:11:45;;;;;;;3.55;2.00;;;25.00;55.60;;;;;;5043983;28;20026;-86
2021/09/13 11:14:16;;;;;;;3.33;2.45;;;25.10;54.70;;;;;;5053973;28;20021;-88
2021/09/13 11:16:52;;;;;;;3.42;2.80;;;25.10;54.20;;;;;;5057169;28;20078;-85
2021/09/13 11:19:19;;;;;;;2.67;2.13;;;25.00;54.20;;;;;;5050741;28;20036;-83
2021/09/13 11:21:53;;;;;;;2.92;2.40;;;25.10;54.90;;;;;;5038105;28;20026;-82
2021/09/13 11:24:23;;;;;;;2.17;1.85;;;25.20;54.90;;;;;;5038170;28;20033;-85
2021/09/13 11:26:58;;;;;;;2.65;2.10;;;25.20;54.30;;;;;;5037976;28;20025;-88
2021/09/13 11:29:28;;;;;;;2.40;1.80;;;25.30;54.30;;;;;;5038459;28;20034;-87
2021/09/13 11:31:55;;;;;;;2.17;1.70;;;25.20;53.30;;;;;;5038981;28;20052;-85
2021/09/13 11:34:42;;;;;;;2.75;1.70;;;25.30;53.70;;;;;;5038073;28;20037;-82
2021/09/13 11:37:14;;;;;;;3.05;1.88;;;25.30;52.70;;;;;;5037977;28;20065;-84
2021/09/13 11:39:44;;;;;;;2.60;1.80;;;25.20;51.00;;;;;;5037886;28;20026;-84
2021/09/13 11:42:17;;;;;;;2.70;1.70;;;25.10;51.80;;;;;;5054609;28;20025;-88
2021/09/13 11:44:48;;;;;;;2.13;1.70;;;25.00;51.90;;;;;;5054434;28;20029;-82
2021/09/13 11:47:16;;;;;;;4.32;2.03;;;25.20;53.00;;;;;;5057524;28;20025;-80
2021/09/13 11:49:44;;;;;;;3.00;1.67;;;25.20;51.50;;;;;;5055959;28;20115;-81
2021/09/13 11:52:30;;;;;;;2.75;1.83;;;25.20;53.40;;;;;;5051881;28;20104;-81
2021/09/13 11:55:09;;;;;;;4.18;1.92;;;25.30;53.40;;;;;;5036990;28;20063;-81
2021/09/13 11:57:51;;;;;;;5.35;1.77;;;25.30;52.00;;;;;;5036988;28;20014;-81
2021/09/13 12:00:22;;;;;;;1.77;1.50;;;25.40;51.10;;;;;;5037234;28;20392;-81
2021/09/13 12:02:59;;;;;;;3.08;1.98;;;25.30;52.20;;;;;;5037221;28;20037;-81
2021/09/13 12:05:34;;;;;;;3.38;1.92;;;25.40;52.20;;;;;;5036821;28;20037;-81
2021/09/13 12:08:02;;;;;;;3.08;1.67;;;25.50;54.20;;;;;;5037318;28;20037;-82
2021/09/13 12:10:33;;;;;;;2.80;1.80;;;25.70;53.40;;;;;;5039567;28;20371;-82
2021/09/13 12:13:08;;;;;;;2.22;1.60;;;25.80;53.50;;;;;;5055756;28;20075;-83
2021/09/13 12:15:35;;;;;;;2.22;1.50;;;25.80;53.20;;;;;;5055913;28;20036;-82
2021/09/13 12:18:06;;;;;;;3.40;1.60;;;25.80;51.40;;;;;;5056679;28;20025;-82
2021/09/13 12:20:32;;;;;;;2.97;1.77;;;25.90;51.30;;;;;;5049295;28;20587;-82
2021/09/13 12:23:06;;;;;;;2.70;1.42;;;25.90;50.00;;;;;;5036849;28;20029;-82
2021/09/13 12:25:39;;;;;;;2.22;1.60;;;25.90;50.10;;;;;;5035326;28;20057;-82
2021/09/13 12:28:05;;;;;;;2.88;2.13;;;25.90;48.80;;;;;;5036701;28;20018;-83
2021/09/13 12:30:37;;;;;;;3.38;2.10;;;25.80;48.20;;;;;;5036511;28;20108;-79
2021/09/13 12:33:05;;;;;;;2.63;1.60;;;25.80;49.50;;;;;;5036610;28;20452;-79
2021/09/13 12:35:44;;;;;;;2.33;1.40;;;25.90;50.70;;;;;;5036464;28;20049;-79
2021/09/13 12:38:17;;;;;;;2.55;1.58;;;26.00;49.80;;;;;;5036656;28;20094;-78
2021/09/13 12:41:00;;;;;;;3.33;1.38;;;26.00;49.10;;;;;;5039412;28;20041;-79
2021/09/13 12:43:32;;;;;;;3.67;1.35;;;25.90;48.70;;;;;;5036319;28;20025;-79
2021/09/13 12:46:12;;;;;;;2.00;1.30;;;26.10;49.50;;;;;;5040572;28;20033;-78
2021/09/13 12:48:44;;;;;;;1.65;1.20;;;26.20;49.10;;;;;;5056653;28;20027;-78
2021/09/13 12:51:21;;;;;;;1.83;1.20;;;26.20;48.90;;;;;;5056375;28;20025;-79
2021/09/13 12:54:03;;;;;;;2.50;1.48;;;26.20;49.50;;;;;;5055022;28;20033;-78
2021/09/13 12:56:30;;;;;;;2.22;1.60;;;26.30;50.30;;;;;;5045111;28;20518;-82
2021/09/13 12:59:17;;;;;;;1.52;1.20;;;26.40;49.60;;;;;;5036240;28;20026;-80
2021/09/13 13:01:43;;;;;;;1.40;0.95;;;26.40;49.60;;;;;;5034874;28;20029;-79